createdAt,value
2022-08-14T00:01:32.183Z,101010.13
2022-08-14T00:03:59.362Z,101003.81
2022-08-14T00:06:28.912Z,101013.13
2022-08-14T00:08:58.824Z,100996.53
2022-08-14T00:11:28.869Z,100993.97
2022-08-14T00:13:59.815Z,100995.66
2022-08-14T00:16:41.251Z,100999.44
2022-08-14T00:19:19.617Z,100991.75
2022-08-14T00:21:50.162Z,100974.06
2022-08-14T00:24:23.374Z,100978.06
2022-08-14T00:26:56.866Z,100979.97
2022-08-14T00:29:25.572Z,100977.28
2022-08-14T00:31:56.458Z,100974.41
2022-08-14T00:34:36.831Z,100968.88
2022-08-14T00:37:12.486Z,100965.56
2022-08-14T00:39:40.536Z,100959.75
2022-08-14T00:42:21.035Z,100960.59
2022-08-14T00:44:48.583Z,100967.91
2022-08-14T00:47:18.093Z,100967.31
2022-08-14T00:49:45.960Z,100949.19
2022-08-14T00:52:17.625Z,100955.19
2022-08-14T00:54:46.849Z,100952.63
2022-08-14T00:57:13.810Z,100939.22
2022-08-14T00:59:41.376Z,100944.59
2022-08-14T01:02:09.445Z,100950.25
2022-08-14T01:04:53.558Z,100940.44
2022-08-14T01:07:23.017Z,100943.94
2022-08-14T01:10:02.042Z,100943.38
2022-08-14T01:12:30.031Z,100944.72
2022-08-14T01:15:02.321Z,100942.25
2022-08-14T01:17:50.710Z,100944.06
2022-08-14T01:20:40.738Z,100937.06
2022-08-14T01:23:16.535Z,100947.31
2022-08-14T01:25:48.877Z,100925.84
2022-08-14T01:28:47.211Z,100932.44
2022-08-14T01:31:05.929Z,100930.75
2022-08-14T01:33:52.211Z,100932.59
2022-08-14T01:36:23.302Z,100922.22
2022-08-14T01:38:51.589Z,100932.47
2022-08-14T01:41:23.083Z,100927.66
2022-08-14T01:44:01.483Z,100924.16
2022-08-14T01:46:36.641Z,100926.06
2022-08-14T01:49:10.093Z,100920.44
2022-08-14T01:51:37.445Z,100921.34
2022-08-14T01:54:09.406Z,100913.25
2022-08-14T01:56:39.177Z,100907.88
2022-08-14T01:59:19.970Z,100902.69
2022-08-14T02:01:58.078Z,100911.09
2022-08-14T02:04:56.270Z,100897.56
2022-08-14T02:07:17.333Z,100908.47
2022-08-14T02:10:01.429Z,100903.06
2022-08-14T02:12:39.231Z,100894.53
2022-08-14T02:15:09.236Z,100895.97
2022-08-14T02:17:36.355Z,100896.75
2022-08-14T02:20:05.774Z,100884.13
2022-08-14T02:22:33.438Z,100895.53
2022-08-14T02:25:01.582Z,100897.91
2022-08-14T02:28:21.922Z,100892.91
2022-08-14T02:30:16.570Z,100890.94
2022-08-14T02:32:43.270Z,100883.72
2022-08-14T02:35:18.927Z,100891.56
2022-08-14T02:37:49.453Z,100893.00
2022-08-14T02:40:32.169Z,100891.91
2022-08-14T02:43:01.098Z,100883.13
2022-08-14T02:45:38.405Z,100893.59
2022-08-14T02:49:03.389Z,100881.63
2022-08-14T02:51:00.906Z,100872.16
2022-08-14T02:53:29.385Z,100882.72
2022-08-14T02:56:03.123Z,100878.59
2022-08-14T02:58:47.790Z,100884.50
2022-08-14T03:01:17.024Z,100891.25
2022-08-14T03:03:48.449Z,100887.84
2022-08-14T03:06:20.415Z,100880.09
2022-08-14T03:09:01.473Z,100883.16
2022-08-14T03:11:34.658Z,100874.63
2022-08-14T03:14:01.874Z,100880.28
2022-08-14T03:16:35.892Z,100865.94
2022-08-14T03:19:09.764Z,100866.53
2022-08-14T03:21:39.813Z,100864.84
2022-08-14T03:24:21.337Z,100849.53
2022-08-14T03:26:49.858Z,100862.84
2022-08-14T03:29:26.448Z,100860.84
2022-08-14T03:31:53.548Z,100860.19
2022-08-14T03:34:24.779Z,100858.91
2022-08-14T03:37:37.938Z,100855.63
2022-08-14T03:39:58.757Z,100863.13
2022-08-14T03:42:31.176Z,100867.66
2022-08-14T03:45:18.801Z,100869.56
2022-08-14T03:47:56.359Z,100860.69
2022-08-14T03:50:30.766Z,100859.19
2022-08-14T03:53:00.483Z,100859.13
2022-08-14T03:55:28.468Z,100865.19
2022-08-14T03:57:57.073Z,100846.28
2022-08-14T04:00:44.348Z,100850.75
2022-08-14T04:03:13.300Z,100856.63
2022-08-14T04:05:48.563Z,100834.06
2022-08-14T04:08:29.830Z,100846.72
2022-08-14T04:11:02.086Z,100843.50
2022-08-14T04:13:35.432Z,100845.22
2022-08-14T04:16:12.464Z,100837.53
2022-08-14T04:18:46.416Z,100841.13
2022-08-14T04:21:14.871Z,100835.47
2022-08-14T04:23:44.205Z,100831.34
2022-08-14T04:26:14.321Z,100836.78
2022-08-14T04:29:07.720Z,100838.44
2022-08-14T04:32:59.108Z,100829.84
2022-08-14T04:34:24.125Z,100822.13
2022-08-14T04:37:12.730Z,100817.75
2022-08-14T04:39:57.997Z,100815.72
2022-08-14T04:42:47.293Z,100819.13
2022-08-14T04:45:23.840Z,100815.66
2022-08-14T04:48:10.443Z,100791.66
2022-08-14T04:50:54.305Z,100804.59
2022-08-14T04:53:35.431Z,100806.56
2022-08-14T04:56:10.382Z,100808.50
2022-08-14T04:58:37.872Z,100804.91
2022-08-14T05:01:12.907Z,100814.97
2022-08-14T05:03:46.903Z,100810.44
2022-08-14T05:06:37.624Z,100792.28
2022-08-14T05:09:00.936Z,100795.53
2022-08-14T05:11:28.047Z,100797.66
2022-08-14T05:14:33.108Z,100798.34
2022-08-14T05:16:44.230Z,100796.22
2022-08-14T05:19:18.182Z,100798.34
2022-08-14T05:22:16.581Z,100790.81
2022-08-14T05:24:48.673Z,100791.69
2022-08-14T05:27:22.801Z,100792.75
2022-08-14T05:29:51.635Z,100798.44
2022-08-14T05:32:18.164Z,100796.03
2022-08-14T05:34:45.641Z,100786.25
2022-08-14T05:37:13.198Z,100808.47
2022-08-14T05:39:42.490Z,100800.03
2022-08-14T05:42:09.814Z,100808.09
2022-08-14T05:44:48.028Z,100808.16
2022-08-14T05:47:16.080Z,100811.22
2022-08-14T05:49:45.927Z,100809.56
2022-08-14T05:52:12.911Z,100809.34
2022-08-14T05:54:44.888Z,100813.41
2022-08-14T05:57:11.477Z,100805.66
2022-08-14T05:59:40.030Z,100794.69
2022-08-14T06:02:11.246Z,100792.50
2022-08-14T06:04:39.421Z,100802.34
2022-08-14T06:07:06.647Z,100797.69
2022-08-14T06:09:35.382Z,100793.50
2022-08-14T06:12:03.248Z,100792.72
2022-08-14T06:14:31.246Z,100796.19
2022-08-14T06:16:58.540Z,100796.59
2022-08-14T06:19:26.302Z,100795.56
2022-08-14T06:21:59.365Z,100793.69
2022-08-14T06:24:30.664Z,100795.50
2022-08-14T06:27:03.911Z,100792.28
2022-08-14T06:29:33.564Z,100791.81
2022-08-14T06:32:37.388Z,100793.97
2022-08-14T06:35:03.921Z,100770.63
2022-08-14T06:37:52.087Z,100787.44
2022-08-14T06:40:40.345Z,100787.50
2022-08-14T06:43:15.456Z,100780.50
2022-08-14T06:45:50.223Z,100792.88
2022-08-14T06:48:24.100Z,100760.88
2022-08-14T06:50:53.828Z,100780.44
2022-08-14T06:53:21.261Z,100780.44
2022-08-14T06:55:58.179Z,100783.66
2022-08-14T06:58:31.609Z,100777.03
2022-08-14T07:01:24.801Z,100783.09
2022-08-14T07:04:22.915Z,100786.34
2022-08-14T07:06:50.720Z,100773.19
2022-08-14T07:09:23.038Z,100785.78
2022-08-14T07:11:50.682Z,100781.97
2022-08-14T07:14:17.625Z,100784.56
2022-08-14T07:16:44.361Z,100784.97
2022-08-14T07:19:11.503Z,100783.09
2022-08-14T07:21:39.678Z,100776.22
2022-08-14T07:24:09.661Z,100776.97
2022-08-14T07:26:48.919Z,100776.28
2022-08-14T07:29:15.715Z,100767.94
2022-08-14T07:31:44.466Z,100764.00
2022-08-14T07:34:13.080Z,100764.44
2022-08-14T07:37:01.206Z,100745.34
2022-08-14T07:39:28.102Z,100760.69
2022-08-14T07:41:54.754Z,100762.13
2022-08-14T07:44:31.903Z,100755.31
2022-08-14T07:47:02.276Z,100758.47
2022-08-14T07:49:32.428Z,100763.81
2022-08-14T07:52:00.102Z,100764.81
2022-08-14T07:54:29.826Z,100764.53
2022-08-14T07:57:06.341Z,100765.97
2022-08-14T07:59:42.224Z,100773.13
2022-08-14T08:02:17.149Z,100769.00
2022-08-14T08:04:54.013Z,100761.19
2022-08-14T08:07:24.021Z,100747.91
2022-08-14T08:09:55.634Z,100754.38
2022-08-14T08:12:29.770Z,100746.41
2022-08-14T08:15:03.252Z,100736.75
2022-08-14T08:17:38.887Z,100733.47
2022-08-14T08:20:20.029Z,100733.09
2022-08-14T08:22:56.001Z,100737.59
2022-08-14T08:25:27.422Z,100732.66
2022-08-14T08:27:56.323Z,100733.63
2022-08-14T08:30:23.679Z,100735.09
2022-08-14T08:32:52.927Z,100736.44
2022-08-14T08:35:23.585Z,100738.88
2022-08-14T08:38:01.270Z,100733.94
2022-08-14T08:40:36.092Z,100738.09
2022-08-14T08:43:21.366Z,100728.00
2022-08-14T08:46:04.529Z,100730.94
2022-08-14T08:48:50.182Z,100740.19
2022-08-14T08:51:31.263Z,100739.56
2022-08-14T08:54:09.837Z,100745.59
2022-08-14T08:56:47.094Z,100732.66
2022-08-14T08:59:22.752Z,100723.34
2022-08-14T09:02:01.536Z,100714.81
2022-08-14T09:04:45.538Z,100716.44
2022-08-14T09:07:27.073Z,100714.19
2022-08-14T09:09:59.060Z,100715.59
2022-08-14T09:12:31.578Z,100714.53
2022-08-14T09:15:01.409Z,100709.84
2022-08-14T09:17:28.348Z,100710.03
2022-08-14T09:19:55.764Z,100700.66
2022-08-14T09:22:36.478Z,100711.84
2022-08-14T09:25:10.744Z,100705.44
2022-08-14T09:27:38.293Z,100700.59
2022-08-14T09:30:30.562Z,100698.53
2022-08-14T09:33:06.087Z,100696.50
2022-08-14T09:36:09.197Z,100690.41
2022-08-14T09:38:51.381Z,100691.00
2022-08-14T09:42:20.220Z,100680.34
2022-08-14T09:45:11.627Z,100686.41
2022-08-14T09:47:46.934Z,100682.09
2022-08-14T09:50:47.741Z,100673.63
2022-08-14T09:54:18.203Z,100672.22
2022-08-14T09:56:30.339Z,100670.63
2022-08-14T09:58:59.975Z,100670.06
2022-08-14T10:01:37.401Z,100665.84
2022-08-14T10:04:12.375Z,100656.28
2022-08-14T10:06:54.272Z,100656.72
2022-08-14T10:09:21.032Z,100652.34
2022-08-14T10:11:59.740Z,100648.38
2022-08-14T10:14:35.749Z,100647.28
2022-08-14T10:17:06.474Z,100651.25
2022-08-14T10:19:36.405Z,100647.25
2022-08-14T10:23:15.231Z,100638.47
2022-08-14T10:24:57.507Z,100639.88
2022-08-14T10:27:27.118Z,100640.88
2022-08-14T10:29:58.322Z,100639.97
2022-08-14T10:32:28.801Z,100634.09
2022-08-14T10:35:13.594Z,100622.97
2022-08-14T10:37:52.507Z,100628.03
2022-08-14T10:40:37.354Z,100622.28
2022-08-14T10:43:26.889Z,100617.06
2022-08-14T10:46:22.051Z,100611.09
2022-08-14T10:49:02.748Z,100607.91
2022-08-14T10:51:36.364Z,100607.03
2022-08-14T10:54:26.031Z,100600.50
2022-08-14T10:56:58.634Z,100598.31
2022-08-14T10:59:30.995Z,100598.53
2022-08-14T11:02:02.901Z,100602.50
2022-08-14T11:04:30.291Z,100607.78
2022-08-14T11:06:58.059Z,100606.69
2022-08-14T11:09:26.345Z,100598.06
2022-08-14T11:12:34.095Z,100601.47
2022-08-14T11:14:59.005Z,100604.25
2022-08-14T11:17:32.220Z,100597.03
2022-08-14T11:20:01.943Z,100596.94
2022-08-14T11:22:56.542Z,100587.44
2022-08-14T11:25:19.498Z,100577.63
2022-08-14T11:27:48.954Z,100567.88
2022-08-14T11:30:51.145Z,100568.19
2022-08-14T11:33:12.041Z,100575.50
2022-08-14T11:35:47.314Z,100569.19
2022-08-14T11:38:17.256Z,100571.06
2022-08-14T11:40:47.653Z,100573.91
2022-08-14T11:43:15.290Z,100559.81
2022-08-14T11:45:47.909Z,100551.13
2022-08-14T11:49:03.749Z,100545.22
2022-08-14T11:51:17.863Z,100544.72
2022-08-14T11:53:51.473Z,100544.59
2022-08-14T11:56:19.254Z,100535.72
2022-08-14T11:58:54.329Z,100545.72
2022-08-14T12:01:27.452Z,100550.91
2022-08-14T12:03:57.726Z,100531.34
2022-08-14T12:06:29.576Z,100530.88
2022-08-14T12:09:08.848Z,100531.63
2022-08-14T12:11:44.318Z,100540.88
2022-08-14T12:14:34.600Z,100534.34
2022-08-14T12:17:12.785Z,100524.09
2022-08-14T12:19:58.893Z,100520.53
2022-08-14T12:22:37.154Z,100519.94
2022-08-14T12:25:10.892Z,100518.13
2022-08-14T12:27:53.075Z,100521.69
2022-08-14T12:30:48.726Z,100511.28
2022-08-14T12:33:31.261Z,100508.84
2022-08-14T12:36:05.573Z,100516.50
2022-08-14T12:38:44.994Z,100505.41
2022-08-14T12:41:21.943Z,100505.13
2022-08-14T12:44:00.190Z,100494.94
2022-08-14T12:46:36.779Z,100494.03
2022-08-14T12:49:10.243Z,100493.75
2022-08-14T12:51:38.015Z,100493.47
2022-08-14T12:54:27.563Z,100488.63
2022-08-14T12:57:44.553Z,100492.50
2022-08-14T13:00:24.052Z,100487.00
2022-08-14T13:02:54.842Z,100484.44
2022-08-14T13:05:32.591Z,100487.31
2022-08-14T13:08:05.065Z,100472.84
2022-08-14T13:10:51.835Z,100473.16
2022-08-14T13:13:20.713Z,100475.88
2022-08-14T13:15:56.007Z,100486.94
2022-08-14T13:18:27.826Z,100475.84
2022-08-14T13:20:57.909Z,100484.41
2022-08-14T13:23:32.613Z,100474.34
2022-08-14T13:26:00.552Z,100472.91
2022-08-14T13:28:32.922Z,100467.22
2022-08-14T13:31:11.022Z,100460.81
2022-08-14T13:33:40.377Z,100458.00
2022-08-14T13:36:09.336Z,100464.56
2022-08-14T13:38:36.834Z,100467.38
2022-08-14T13:41:06.153Z,100465.41
2022-08-14T13:43:36.936Z,100440.66
2022-08-14T13:46:19.342Z,100450.09
2022-08-14T13:48:46.082Z,100453.31
2022-08-14T13:51:16.771Z,100446.66
2022-08-14T13:54:08.262Z,100437.66
2022-08-14T13:56:40.933Z,100446.03
2022-08-14T13:59:10.015Z,100442.09
2022-08-14T14:01:43.486Z,100440.59
2022-08-14T14:04:19.420Z,100438.31
2022-08-14T14:06:48.766Z,100434.44
2022-08-14T14:09:20.799Z,100427.31
2022-08-14T14:11:47.860Z,100425.69
2022-08-14T14:14:44.543Z,100432.69
2022-08-14T14:17:12.538Z,100426.59
2022-08-14T14:19:46.927Z,100429.28
2022-08-14T14:22:34.281Z,100430.28
2022-08-14T14:25:02.922Z,100424.44
2022-08-14T14:27:40.938Z,100426.03
2022-08-14T14:30:27.702Z,100422.84
2022-08-14T14:33:04.461Z,100419.22
2022-08-14T14:35:34.906Z,100404.75
2022-08-14T14:38:08.808Z,100407.53
2022-08-14T14:40:54.291Z,100406.22
2022-08-14T14:43:27.937Z,100415.31
2022-08-14T14:45:55.575Z,100405.09
2022-08-14T14:48:28.257Z,100402.84
2022-08-14T14:50:59.379Z,100402.31
2022-08-14T14:53:27.346Z,100385.94
2022-08-14T14:56:52.303Z,100391.63
2022-08-14T14:58:46.328Z,100378.91
2022-08-14T15:01:15.880Z,100380.59
2022-08-14T15:03:46.175Z,100382.03
2022-08-14T15:06:12.898Z,100377.22
2022-08-14T15:08:56.883Z,100372.53
2022-08-14T15:11:26.546Z,100372.63
2022-08-14T15:13:58.303Z,100373.72
2022-08-14T15:16:27.034Z,100374.31
2022-08-14T15:18:54.361Z,100365.50
2022-08-14T15:21:21.571Z,100355.44
2022-08-14T15:23:50.663Z,100357.19
2022-08-14T15:26:24.055Z,100359.75
2022-08-14T15:29:02.821Z,100359.50
2022-08-14T15:31:34.950Z,100348.50
2022-08-14T15:34:45.443Z,100345.94
2022-08-14T15:36:59.011Z,100346.63
2022-08-14T15:39:26.192Z,100355.41
2022-08-14T15:41:58.085Z,100345.09
2022-08-14T15:44:27.299Z,100348.53
2022-08-14T15:46:58.285Z,100353.63
2022-08-14T15:49:33.246Z,100350.16
2022-08-14T15:52:04.160Z,100346.75
2022-08-14T15:54:32.415Z,100343.28
2022-08-14T15:57:04.544Z,100336.91
2022-08-14T15:59:49.740Z,100331.94
2022-08-14T16:02:37.774Z,100332.56
2022-08-14T16:05:05.825Z,100339.06
2022-08-14T16:07:33.269Z,100333.28
2022-08-14T16:10:27.554Z,100339.19
2022-08-14T16:12:48.035Z,100318.94
2022-08-14T16:15:16.927Z,100325.50
2022-08-14T16:17:45.208Z,100325.38
2022-08-14T16:20:12.768Z,100320.16
2022-08-14T16:23:11.671Z,100332.28
2022-08-14T16:25:42.838Z,100318.63
2022-08-14T16:28:09.721Z,100326.75
2022-08-14T16:30:36.323Z,100323.44
2022-08-14T16:33:09.530Z,100310.34
2022-08-14T16:36:00.696Z,100335.31
2022-08-14T16:38:45.558Z,100321.03
2022-08-14T16:41:18.371Z,100318.41
2022-08-14T16:43:52.373Z,100307.94
2022-08-14T16:46:22.205Z,100318.16
2022-08-14T16:48:57.155Z,100318.78
2022-08-14T16:51:26.262Z,100314.59
2022-08-14T16:53:55.732Z,100307.41
2022-08-14T16:56:25.347Z,100290.16
2022-08-14T16:59:17.372Z,100306.75
2022-08-14T17:01:47.590Z,100300.75
2022-08-14T17:04:24.473Z,100305.31
2022-08-14T17:06:53.848Z,100297.88
2022-08-14T17:09:31.496Z,100288.38
2022-08-14T17:12:07.933Z,100284.94
2022-08-14T17:14:50.756Z,100290.00
2022-08-14T17:17:27.001Z,100296.16
2022-08-14T17:20:01.111Z,100295.50
2022-08-14T17:22:53.932Z,100285.41
2022-08-14T17:25:37.134Z,100295.00
2022-08-14T17:28:51.065Z,100287.38
2022-08-14T17:31:05.579Z,100288.16
2022-08-14T17:33:40.434Z,100281.78
2022-08-14T17:36:21.140Z,100283.69
2022-08-14T17:38:59.965Z,100287.06
2022-08-14T17:41:33.030Z,100292.16
2022-08-14T17:44:11.771Z,100280.38
2022-08-14T17:46:43.521Z,100284.22
2022-08-14T17:49:16.896Z,100270.16
2022-08-14T17:52:16.606Z,100269.94
2022-08-14T17:54:52.911Z,100264.69
2022-08-14T17:57:26.233Z,100273.75
2022-08-14T17:59:56.998Z,100270.13
2022-08-14T18:02:31.052Z,100274.84
2022-08-14T18:05:02.830Z,100281.16
2022-08-14T18:07:59.610Z,100283.19
2022-08-14T18:10:51.638Z,100286.84
2022-08-14T18:13:07.978Z,100283.91
2022-08-14T18:15:41.350Z,100277.78
2022-08-14T18:18:11.814Z,100280.34
2022-08-14T18:21:40.730Z,100282.41
2022-08-14T18:23:26.766Z,100278.31
2022-08-14T18:25:57.275Z,100285.28
2022-08-14T18:28:48.024Z,100275.03
2022-08-14T18:31:21.577Z,100275.09
2022-08-14T18:34:06.248Z,100271.13
2022-08-14T18:36:47.258Z,100252.28
2022-08-14T18:39:28.182Z,100272.25
2022-08-14T18:41:58.487Z,100276.66
2022-08-14T18:44:54.872Z,100272.56
2022-08-14T18:47:23.841Z,100266.03
2022-08-14T18:50:00.458Z,100276.91
2022-08-14T18:52:32.047Z,100279.75
2022-08-14T18:55:20.618Z,100281.59
2022-08-14T18:57:57.997Z,100272.00
2022-08-14T19:00:33.334Z,100280.88
2022-08-14T19:03:08.267Z,100283.72
2022-08-14T19:05:37.601Z,100280.06
2022-08-14T19:08:25.126Z,100280.69
2022-08-14T19:10:55.613Z,100284.81
2022-08-14T19:13:47.972Z,100278.09
2022-08-14T19:16:23.558Z,100287.13
2022-08-14T19:18:53.902Z,100281.22
2022-08-14T19:21:57.236Z,100277.81
2022-08-14T19:24:44.161Z,100286.91
2022-08-14T19:27:24.809Z,100280.69
2022-08-14T19:30:19.674Z,100289.47
2022-08-14T19:32:52.171Z,100293.88
2022-08-14T19:35:22.888Z,100289.22
2022-08-14T19:37:55.231Z,100288.19
2022-08-14T19:40:34.376Z,100291.03
2022-08-14T19:43:06.351Z,100284.25
2022-08-14T19:45:38.421Z,100287.84
2022-08-14T19:48:14.204Z,100282.94
2022-08-14T19:50:44.372Z,100292.00
2022-08-14T19:53:17.719Z,100274.66
2022-08-14T19:55:58.429Z,100280.34
2022-08-14T19:58:55.393Z,100293.81
2022-08-14T20:01:37.363Z,100287.84
2022-08-14T20:04:46.592Z,100282.06
2022-08-14T20:07:09.262Z,100301.31
2022-08-14T20:11:06.628Z,100291.66
2022-08-14T20:12:36.515Z,100285.88
2022-08-14T20:15:20.920Z,100282.03
2022-08-14T20:17:52.745Z,100274.25
2022-08-14T20:20:31.466Z,100287.22
2022-08-14T20:23:10.757Z,100283.09
2022-08-14T20:25:45.669Z,100282.06
2022-08-14T20:28:31.999Z,100278.19
2022-08-14T20:31:37.163Z,100284.81
2022-08-14T20:34:24.819Z,100284.31
2022-08-14T20:37:22.491Z,100289.66
2022-08-14T20:39:53.696Z,100279.56
2022-08-14T20:42:43.588Z,100270.84
2022-08-14T20:45:23.915Z,100267.25
2022-08-14T20:47:58.348Z,100279.72
2022-08-14T20:50:28.740Z,100269.75
2022-08-14T20:53:00.652Z,100276.66
2022-08-14T20:55:41.581Z,100272.94
2022-08-14T20:58:38.506Z,100268.63
2022-08-14T21:01:33.613Z,100273.16
2022-08-14T21:04:05.118Z,100268.22
2022-08-14T21:07:23.227Z,100273.00
2022-08-14T21:10:03.039Z,100272.38
2022-08-14T21:12:33.799Z,100268.03
2022-08-14T21:15:01.624Z,100257.75
2022-08-14T21:17:29.644Z,100260.28
2022-08-14T21:19:56.542Z,100246.88
2022-08-14T21:22:23.251Z,100242.66
2022-08-14T21:24:49.846Z,100248.78
2022-08-14T21:27:28.801Z,100259.16
2022-08-14T21:30:08.557Z,100255.69
2022-08-14T21:32:50.226Z,100257.25
2022-08-14T21:35:24.460Z,100254.13
2022-08-14T21:37:52.449Z,100266.31
2022-08-14T21:40:41.849Z,100261.56
2022-08-14T21:43:17.465Z,100266.00
2022-08-14T21:45:46.147Z,100263.53
2022-08-14T21:48:20.723Z,100256.81
2022-08-14T21:51:01.606Z,100265.28
2022-08-14T21:53:58.005Z,100268.53
2022-08-14T21:56:39.562Z,100263.88
2022-08-14T21:59:22.465Z,100260.34
2022-08-14T22:02:01.271Z,100266.00
2022-08-14T22:04:32.092Z,100263.59
2022-08-14T22:07:05.515Z,100263.50
2022-08-14T22:09:36.783Z,100264.28
2022-08-14T22:12:07.184Z,100273.13
2022-08-14T22:14:43.279Z,100283.41
2022-08-14T22:17:17.013Z,100281.84
2022-08-14T22:19:54.324Z,100280.88
2022-08-14T22:22:26.664Z,100276.06
2022-08-14T22:24:59.986Z,100267.88
2022-08-14T22:27:29.458Z,100271.78
2022-08-14T22:29:58.603Z,100273.88
2022-08-14T22:32:56.946Z,100268.22
2022-08-14T22:35:15.894Z,100260.63
2022-08-14T22:37:44.623Z,100254.34
2022-08-14T22:40:50.994Z,100272.91
2022-08-14T22:43:01.328Z,100260.94
2022-08-14T22:45:36.665Z,100269.53
2022-08-14T22:48:10.970Z,100263.72
2022-08-14T22:50:49.148Z,100262.47
2022-08-14T22:53:21.312Z,100273.84
2022-08-14T22:55:48.889Z,100258.53
2022-08-14T22:58:30.725Z,100266.13
2022-08-14T23:01:01.509Z,100266.22
2022-08-14T23:03:34.173Z,100248.19
2022-08-14T23:06:02.216Z,100261.66
2022-08-14T23:09:00.188Z,100262.97
2022-08-14T23:11:15.952Z,100265.16
2022-08-14T23:13:46.329Z,100246.78
2022-08-14T23:16:20.195Z,100251.03
2022-08-14T23:18:54.131Z,100252.78
2022-08-14T23:21:24.313Z,100244.44
2022-08-14T23:23:54.850Z,100254.69
2022-08-14T23:26:48.484Z,100245.66
2022-08-14T23:29:11.454Z,100253.53
2022-08-14T23:31:39.406Z,100250.56
2022-08-14T23:34:10.943Z,100257.16
2022-08-14T23:36:52.966Z,100258.28
2022-08-14T23:39:24.636Z,100254.75
2022-08-14T23:41:56.486Z,100246.97
2022-08-14T23:44:24.170Z,100251.06
2022-08-14T23:46:56.973Z,100248.72
2022-08-14T23:49:37.927Z,100246.38
2022-08-14T23:52:51.543Z,100236.06
2022-08-14T23:55:02.364Z,100253.31
2022-08-14T23:57:30.756Z,100237.13
2022-08-14T23:59:57.538Z,100232.88
